Time;durP1;ratioP1;P1;durP2;ratioP2;P2;SDS_P1;SDS_P2;PMS_P1;PMS_P2;Temp;Humidity;BMP_temperature;BMP_pressure;BME280_temperature;BME280_humidity;BME280_pressure;Samples;Min_cycle;Max_cycle;Signal;HPM_P1;HPM_P2
2024/02/25 00:01:46;;;;;;;;;;;17.90;42.70;;;;;;1571694;74;738;-75
2024/02/25 00:03:48;;;;;;;;;;;18.00;42.70;;;;;;1573592;75;742;-75
2024/02/25 00:05:50;;;;;;;;;;;17.90;42.70;;;;;;1556155;74;810;-73
2024/02/25 00:07:52;;;;;;;;;;;17.90;42.70;;;;;;1576054;74;1922;-75
2024/02/25 00:09:54;;;;;;;;;;;17.90;42.80;;;;;;1575984;74;1147;-73
2024/02/25 00:11:56;;;;;;;;;;;18.00;42.70;;;;;;1575218;75;554;-75
2024/02/25 00:13:58;;;;;;;;;;;17.90;42.70;;;;;;1569002;74;737;-73
2024/02/25 00:16:00;;;;;;;;;;;17.90;42.70;;;;;;1570027;74;639;-76
2024/02/25 00:18:01;;;;;;;;;;;17.90;42.70;;;;;;1558583;74;676;-75
2024/02/25 00:20:04;;;;;;;;;;;17.90;42.70;;;;;;1573054;74;1160;-75
2024/02/25 00:22:06;;;;;;;;;;;17.90;42.70;;;;;;1566024;74;641;-73
2024/02/25 00:24:08;;;;;;;;;;;17.90;42.70;;;;;;1567855;74;637;-74
2024/02/25 00:26:09;;;;;;;;;;;18.00;42.70;;;;;;1571889;74;658;-77
2024/02/25 00:28:11;;;;;;;;;;;18.00;42.70;;;;;;1570701;74;1927;-75
2024/02/25 00:30:13;;;;;;;;;;;18.00;42.60;;;;;;1565492;75;1131;-74
2024/02/25 00:32:15;;;;;;;;;;;17.90;42.70;;;;;;1567378;74;559;-78
2024/02/25 00:34:17;;;;;;;;;;;18.00;42.70;;;;;;1578640;74;712;-76
2024/02/25 00:36:19;;;;;;;;;;;17.90;42.70;;;;;;1562589;74;1564;-75
2024/02/25 00:38:21;;;;;;;;;;;18.00;42.70;;;;;;1569953;75;774;-75
2024/02/25 00:40:23;;;;;;;;;;;17.90;42.70;;;;;;1567609;74;1172;-74
2024/02/25 00:42:25;;;;;;;;;;;17.90;42.70;;;;;;1572650;74;679;-74
2024/02/25 00:44:27;;;;;;;;;;;17.90;42.70;;;;;;1577576;75;703;-74
2024/02/25 00:46:29;;;;;;;;;;;17.90;42.70;;;;;;1572430;74;644;-77
2024/02/25 00:48:30;;;;;;;;;;;17.90;42.70;;;;;;1558438;75;1947;-76
2024/02/25 00:50:32;;;;;;;;;;;17.90;42.70;;;;;;1575057;74;1188;-73
2024/02/25 00:52:34;;;;;;;;;;;17.90;42.70;;;;;;1566517;75;559;-74
2024/02/25 00:54:37;;;;;;;;;;;18.10;42.80;;;;;;1557366;75;586;-74
2024/02/25 00:56:39;;;;;;;;;;;17.90;42.70;;;;;;1571575;75;577;-80
2024/02/25 00:58:40;;;;;;;;;;;17.90;42.70;;;;;;1562545;75;726;-76
2024/02/25 01:00:42;;;;;;;;;;;17.90;42.70;;;;;;1570605;75;1133;-76
2024/02/25 01:02:45;;;;;;;;;;;17.90;42.70;;;;;;1571999;75;800;-72
2024/02/25 01:04:47;;;;;;;;;;;17.90;42.70;;;;;;1567068;75;637;-74
2024/02/25 01:06:49;;;;;;;;;;;17.90;42.80;;;;;;1565646;75;720;-75
2024/02/25 01:08:51;;;;;;;;;;;17.90;42.70;;;;;;1564342;74;1925;-76
2024/02/25 01:10:53;;;;;;;;;;;17.90;42.70;;;;;;1567406;75;1113;-75
2024/02/25 01:12:55;;;;;;;;;;;17.90;42.70;;;;;;1569008;75;706;-76
2024/02/25 01:14:57;;;;;;;;;;;18.00;42.70;;;;;;1565704;75;701;-73
2024/02/25 01:16:58;;;;;;;;;;;17.90;42.70;;;;;;1571077;75;672;-75
2024/02/25 01:19:00;;;;;;;;;;;18.00;42.70;;;;;;1553672;75;709;-77
2024/02/25 01:21:02;;;;;;;;;;;17.90;42.60;;;;;;1559561;75;1069;-79
2024/02/25 01:23:05;;;;;;;;;;;17.90;42.70;;;;;;1562683;75;680;-80
2024/02/25 01:25:07;;;;;;;;;;;17.90;42.70;;;;;;1568330;74;626;-73
2024/02/25 01:27:09;;;;;;;;;;;17.90;42.70;;;;;;1567224;75;697;-75
2024/02/25 01:29:11;;;;;;;;;;;18.00;42.70;;;;;;1559413;75;1933;-78
2024/02/25 01:31:13;;;;;;;;;;;17.90;42.70;;;;;;1560959;75;1159;-73
2024/02/25 01:33:15;;;;;;;;;;;18.00;42.70;;;;;;1565898;75;1301;-75
2024/02/25 01:35:17;;;;;;;;;;;18.00;42.70;;;;;;1552322;75;676;-74
2024/02/25 01:37:19;;;;;;;;;;;17.90;42.70;;;;;;1570779;75;686;-76
2024/02/25 01:39:22;;;;;;;;;;;17.90;42.70;;;;;;1556152;74;1216;-75
2024/02/25 01:41:24;;;;;;;;;;;17.90;42.70;;;;;;1559566;75;549;-73
2024/02/25 01:43:26;;;;;;;;;;;17.90;42.70;;;;;;1562413;75;666;-75
2024/02/25 01:45:28;;;;;;;;;;;18.00;42.70;;;;;;1564477;75;648;-78
2024/02/25 01:47:30;;;;;;;;;;;17.90;42.70;;;;;;1562276;75;1116;-74
2024/02/25 01:49:32;;;;;;;;;;;18.00;42.70;;;;;;1584061;75;1933;-74
2024/02/25 01:51:34;;;;;;;;;;;17.90;42.70;;;;;;1562176;74;828;-74
2024/02/25 01:53:35;;;;;;;;;;;18.00;42.70;;;;;;1573661;74;629;-77
2024/02/25 01:55:37;;;;;;;;;;;17.90;42.70;;;;;;1580397;74;641;-78
2024/02/25 01:57:39;;;;;;;;;;;17.90;42.70;;;;;;1573417;74;668;-77
2024/02/25 01:59:41;;;;;;;;;;;18.00;42.70;;;;;;1572636;74;1129;-76
2024/02/25 02:01:43;;;;;;;;;;;17.90;42.70;;;;;;1565598;75;788;-75
2024/02/25 02:03:45;;;;;;;;;;;17.90;42.70;;;;;;1561369;74;740;-75
2024/02/25 02:05:47;;;;;;;;;;;17.90;42.70;;;;;;1571302;75;709;-74
2024/02/25 02:07:49;;;;;;;;;;;18.00;42.70;;;;;;1575966;75;761;-74
2024/02/25 02:09:51;;;;;;;;;;;17.90;42.70;;;;;;1568255;74;1927;-76
2024/02/25 02:11:56;;;;;;;;;;;18.00;42.70;;;;;;1577704;74;756;-75
2024/02/25 02:13:58;;;;;;;;;;;17.90;42.70;;;;;;1580188;74;661;-74
2024/02/25 02:16:00;;;;;;;;;;;18.00;42.70;;;;;;1571166;75;656;-77
2024/02/25 02:18:03;;;;;;;;;;;17.90;42.70;;;;;;1573384;74;673;-75
2024/02/25 02:20:06;;;;;;;;;;;18.00;42.70;;;;;;1573278;74;1104;-79
2024/02/25 02:22:08;;;;;;;;;;;18.00;42.70;;;;;;1568708;74;642;-74
2024/02/25 02:24:12;;;;;;;;;;;18.00;42.70;;;;;;1577425;74;796;-75
2024/02/25 02:26:13;;;;;;;;;;;17.90;42.70;;;;;;1571816;75;767;-73
2024/02/25 02:28:15;;;;;;;;;;;18.00;42.60;;;;;;1569177;75;1926;-73
2024/02/25 02:30:17;;;;;;;;;;;18.00;42.70;;;;;;1575070;74;1159;-75
2024/02/25 02:32:19;;;;;;;;;;;17.90;42.70;;;;;;1576507;75;790;-78
2024/02/25 02:34:21;;;;;;;;;;;17.90;42.70;;;;;;1581798;75;686;-76
2024/02/25 02:36:23;;;;;;;;;;;17.90;42.70;;;;;;1573896;74;793;-74
2024/02/25 02:38:25;;;;;;;;;;;17.80;42.60;;;;;;1577409;74;737;-77
2024/02/25 02:40:27;;;;;;;;;;;17.90;42.70;;;;;;1580123;74;1134;-75
2024/02/25 02:42:29;;;;;;;;;;;18.00;42.60;;;;;;1538288;76;660;-72
2024/02/25 02:44:31;;;;;;;;;;;17.90;42.70;;;;;;1583441;74;847;-75
2024/02/25 02:46:34;;;;;;;;;;;17.90;42.70;;;;;;1575605;74;655;-74
2024/02/25 02:48:36;;;;;;;;;;;18.00;42.70;;;;;;1573978;75;1950;-76
2024/02/25 02:50:38;;;;;;;;;;;17.90;42.70;;;;;;1565684;75;1133;-74
2024/02/25 02:52:40;;;;;;;;;;;18.00;42.70;;;;;;1572808;75;705;-75
2024/02/25 02:54:42;;;;;;;;;;;17.90;42.70;;;;;;1564966;75;671;-75
2024/02/25 02:56:44;;;;;;;;;;;17.90;42.70;;;;;;1564561;74;630;-76
2024/02/25 02:58:48;;;;;;;;;;;17.90;42.70;;;;;;1559702;75;748;-76
2024/02/25 03:00:49;;;;;;;;;;;17.90;42.60;;;;;;1562658;75;1527;-75
2024/02/25 03:02:51;;;;;;;;;;;17.90;42.70;;;;;;1569925;75;817;-76
2024/02/25 03:04:53;;;;;;;;;;;17.90;42.70;;;;;;1557138;75;696;-74
2024/02/25 03:06:55;;;;;;;;;;;17.80;42.60;;;;;;1559551;75;754;-75
2024/02/25 03:08:57;;;;;;;;;;;17.90;42.70;;;;;;1568903;75;1930;-73
2024/02/25 03:10:59;;;;;;;;;;;18.00;42.70;;;;;;1559292;75;1118;-78
2024/02/25 03:13:01;;;;;;;;;;;17.90;42.70;;;;;;1557526;74;752;-76
2024/02/25 03:15:03;;;;;;;;;;;17.90;42.70;;;;;;1563609;75;654;-73
2024/02/25 03:17:05;;;;;;;;;;;17.90;42.70;;;;;;1560126;75;607;-74
2024/02/25 03:19:07;;;;;;;;;;;17.90;42.70;;;;;;1557368;75;646;-73
2024/02/25 03:21:09;;;;;;;;;;;18.00;42.70;;;;;;1568044;75;1153;-75
2024/02/25 03:23:13;;;;;;;;;;;17.90;42.70;;;;;;1551910;75;622;-76
2024/02/25 03:25:15;;;;;;;;;;;17.90;42.70;;;;;;1548399;75;1337;-76
2024/02/25 03:27:17;;;;;;;;;;;17.90;42.70;;;;;;1569103;75;738;-74
2024/02/25 03:29:19;;;;;;;;;;;17.80;42.60;;;;;;1570361;75;1936;-75
2024/02/25 03:31:20;;;;;;;;;;;17.90;42.60;;;;;;1553414;75;779;-74
2024/02/25 03:33:22;;;;;;;;;;;18.00;42.60;;;;;;1555085;74;763;-74
2024/02/25 03:35:24;;;;;;;;;;;18.00;42.70;;;;;;1555489;75;763;-76
2024/02/25 03:37:26;;;;;;;;;;;17.90;42.70;;;;;;1558185;75;716;-80
2024/02/25 03:39:28;;;;;;;;;;;17.90;42.70;;;;;;1573023;75;1204;-76
2024/02/25 03:41:30;;;;;;;;;;;17.90;42.70;;;;;;1570821;75;665;-78
2024/02/25 03:43:32;;;;;;;;;;;18.00;42.70;;;;;;1566426;75;659;-75
2024/02/25 03:45:34;;;;;;;;;;;18.00;42.80;;;;;;1567062;75;747;-73
2024/02/25 03:47:36;;;;;;;;;;;17.90;42.70;;;;;;1564640;75;813;-73
2024/02/25 03:49:40;;;;;;;;;;;17.90;42.70;;;;;;1562911;75;1994;-75
2024/02/25 03:51:42;;;;;;;;;;;18.00;42.70;;;;;;1582485;75;734;-74
2024/02/25 03:53:46;;;;;;;;;;;17.90;42.80;;;;;;1570783;74;740;-75
2024/02/25 03:55:48;;;;;;;;;;;17.90;42.70;;;;;;1571439;74;663;-74
2024/02/25 03:57:50;;;;;;;;;;;17.90;42.80;;;;;;1577548;74;748;-74
2024/02/25 03:59:52;;;;;;;;;;;17.90;42.70;;;;;;1578108;75;1143;-74
2024/02/25 04:01:54;;;;;;;;;;;17.90;42.70;;;;;;1565430;74;761;-73
2024/02/25 04:03:56;;;;;;;;;;;17.90;42.70;;;;;;1576526;74;692;-76
2024/02/25 04:05:58;;;;;;;;;;;17.90;42.70;;;;;;1576688;74;611;-77
2024/02/25 04:08:00;;;;;;;;;;;18.00;42.70;;;;;;1569048;74;692;-75
2024/02/25 04:10:01;;;;;;;;;;;18.00;42.70;;;;;;1580673;75;1947;-75
2024/02/25 04:12:03;;;;;;;;;;;18.00;42.70;;;;;;1579988;75;751;-73
2024/02/25 04:14:05;;;;;;;;;;;17.90;42.70;;;;;;1572973;74;722;-75
2024/02/25 04:16:07;;;;;;;;;;;17.90;42.80;;;;;;1567635;74;653;-75
2024/02/25 04:18:09;;;;;;;;;;;18.00;42.70;;;;;;1568180;75;734;-77
2024/02/25 04:20:11;;;;;;;;;;;18.00;42.70;;;;;;1576460;75;1133;-78
2024/02/25 04:22:13;;;;;;;;;;;17.90;42.70;;;;;;1573437;74;1418;-75
2024/02/25 04:24:15;;;;;;;;;;;18.00;42.70;;;;;;1577771;75;798;-74
2024/02/25 04:26:16;;;;;;;;;;;17.90;42.70;;;;;;1568124;74;802;-74
2024/02/25 04:28:18;;;;;;;;;;;18.00;42.70;;;;;;1581770;75;613;-77
2024/02/25 04:30:20;;;;;;;;;;;17.90;42.70;;;;;;1579044;74;1947;-76
2024/02/25 04:32:22;;;;;;;;;;;17.90;42.70;;;;;;1565254;74;659;-76
2024/02/25 04:34:24;;;;;;;;;;;17.90;42.70;;;;;;1568703;74;739;-78
2024/02/25 04:36:26;;;;;;;;;;;18.00;42.70;;;;;;1568156;74;753;-74
2024/02/25 04:38:28;;;;;;;;;;;18.00;42.70;;;;;;1578461;75;537;-75
2024/02/25 04:40:30;;;;;;;;;;;17.90;42.70;;;;;;1575604;74;1153;-78
2024/02/25 04:42:31;;;;;;;;;;;17.90;42.70;;;;;;1574819;75;621;-78
2024/02/25 04:44:33;;;;;;;;;;;17.90;42.60;;;;;;1571029;74;721;-75
2024/02/25 04:46:35;;;;;;;;;;;17.90;42.70;;;;;;1570914;74;684;-76
2024/02/25 04:48:38;;;;;;;;;;;17.90;42.70;;;;;;1574362;75;699;-76
2024/02/25 04:50:40;;;;;;;;;;;17.90;42.70;;;;;;1570436;74;1931;-80
2024/02/25 04:52:42;;;;;;;;;;;17.90;42.70;;;;;;1573081;75;645;-76
2024/02/25 04:54:44;;;;;;;;;;;17.90;42.70;;;;;;1559296;75;618;-77
2024/02/25 04:56:46;;;;;;;;;;;17.90;42.70;;;;;;1568200;75;686;-76
2024/02/25 04:58:48;;;;;;;;;;;18.00;42.70;;;;;;1562611;75;660;-75
2024/02/25 05:00:50;;;;;;;;;;;17.90;42.70;;;;;;1567297;75;1124;-77
2024/02/25 05:02:51;;;;;;;;;;;17.90;42.70;;;;;;1557144;75;726;-77
2024/02/25 05:04:53;;;;;;;;;;;17.90;42.80;;;;;;1571982;75;637;-78
2024/02/25 05:06:55;;;;;;;;;;;17.90;42.70;;;;;;1567156;75;743;-79
2024/02/25 05:08:57;;;;;;;;;;;17.90;42.70;;;;;;1564162;75;681;-79
2024/02/25 05:10:59;;;;;;;;;;;17.90;42.70;;;;;;1559363;75;1927;-74
2024/02/25 05:13:01;;;;;;;;;;;17.90;42.70;;;;;;1568017;75;727;-75
2024/02/25 05:15:03;;;;;;;;;;;17.90;42.60;;;;;;1561496;75;666;-75
2024/02/25 05:17:05;;;;;;;;;;;17.90;42.70;;;;;;1557210;75;1313;-77
2024/02/25 05:19:07;;;;;;;;;;;17.90;42.60;;;;;;1564418;75;700;-75
2024/02/25 05:21:09;;;;;;;;;;;17.90;42.70;;;;;;1569870;75;1092;-79
2024/02/25 05:23:10;;;;;;;;;;;17.90;42.70;;;;;;1560525;75;777;-74
2024/02/25 05:25:15;;;;;;;;;;;17.90;42.70;;;;;;1559082;75;665;-75
2024/02/25 05:27:18;;;;;;;;;;;18.00;42.70;;;;;;1563643;75;749;-75
2024/02/25 05:29:21;;;;;;;;;;;17.90;42.70;;;;;;1562813;75;1910;-73
2024/02/25 05:31:23;;;;;;;;;;;17.90;42.70;;;;;;1562804;75;782;-75
2024/02/25 05:33:25;;;;;;;;;;;17.90;42.70;;;;;;1557334;75;685;-74
2024/02/25 05:35:27;;;;;;;;;;;18.00;42.70;;;;;;1554147;75;720;-74
2024/02/25 05:37:29;;;;;;;;;;;17.90;42.60;;;;;;1570476;75;721;-73
2024/02/25 05:39:30;;;;;;;;;;;17.90;42.70;;;;;;1566344;75;1162;-75
2024/02/25 05:41:32;;;;;;;;;;;17.90;42.70;;;;;;1572966;75;674;-76
2024/02/25 05:43:34;;;;;;;;;;;17.90;42.70;;;;;;1550460;75;724;-74
2024/02/25 05:45:36;;;;;;;;;;;17.90;42.70;;;;;;1555327;75;661;-75
2024/02/25 05:47:38;;;;;;;;;;;18.00;42.70;;;;;;1565951;75;747;-75
2024/02/25 05:49:40;;;;;;;;;;;17.90;42.70;;;;;;1546436;75;1956;-75
2024/02/25 05:51:42;;;;;;;;;;;17.90;42.70;;;;;;1562089;75;499;-76
2024/02/25 05:53:43;;;;;;;;;;;17.90;42.60;;;;;;1548312;75;637;-75
2024/02/25 05:55:47;;;;;;;;;;;17.90;42.70;;;;;;1551635;75;764;-78
2024/02/25 05:57:49;;;;;;;;;;;18.00;42.70;;;;;;1554133;75;673;-73
2024/02/25 05:59:51;;;;;;;;;;;17.90;42.70;;;;;;1551141;75;1180;-76
2024/02/25 06:01:53;;;;;;;;;;;17.90;42.70;;;;;;1551265;75;932;-75
2024/02/25 06:03:55;;;;;;;;;;;17.90;42.70;;;;;;1547544;75;769;-78
2024/02/25 06:05:57;;;;;;;;;;;17.90;42.70;;;;;;1552805;75;738;-73
2024/02/25 06:08:01;;;;;;;;;;;17.90;42.70;;;;;;1543191;75;707;-75
2024/02/25 06:10:03;;;;;;;;;;;17.90;42.70;;;;;;1555841;75;1999;-77
2024/02/25 06:12:05;;;;;;;;;;;17.90;42.70;;;;;;1563448;75;784;-74
2024/02/25 06:14:07;;;;;;;;;;;17.90;42.70;;;;;;1553047;75;1350;-74
2024/02/25 06:16:09;;;;;;;;;;;17.90;42.60;;;;;;1570151;75;762;-78
2024/02/25 06:18:12;;;;;;;;;;;17.90;42.70;;;;;;1566797;75;686;-75
2024/02/25 06:20:15;;;;;;;;;;;17.90;42.70;;;;;;1548018;75;1118;-73
2024/02/25 06:22:17;;;;;;;;;;;17.90;42.70;;;;;;1555446;75;780;-77
2024/02/25 06:24:19;;;;;;;;;;;17.90;42.60;;;;;;1564447;75;728;-74
2024/02/25 06:26:21;;;;;;;;;;;18.00;42.60;;;;;;1561308;75;722;-75
2024/02/25 06:28:23;;;;;;;;;;;17.90;42.70;;;;;;1565486;75;688;-75
2024/02/25 06:30:25;;;;;;;;;;;17.90;42.70;;;;;;1551795;75;1927;-75
2024/02/25 06:32:27;;;;;;;;;;;17.90;42.60;;;;;;1551892;75;715;-75
2024/02/25 06:34:29;;;;;;;;;;;18.00;42.70;;;;;;1548619;75;652;-75
2024/02/25 06:36:31;;;;;;;;;;;17.90;42.70;;;;;;1551545;75;870;-76
2024/02/25 06:38:33;;;;;;;;;;;17.90;42.60;;;;;;1550250;75;679;-77
2024/02/25 06:40:35;;;;;;;;;;;17.90;42.60;;;;;;1550334;75;1153;-74
2024/02/25 06:42:36;;;;;;;;;;;17.90;42.60;;;;;;1547155;75;596;-75
2024/02/25 06:44:40;;;;;;;;;;;17.90;42.60;;;;;;1546471;75;687;-78
2024/02/25 06:46:42;;;;;;;;;;;17.90;42.70;;;;;;1552304;75;1094;-74
2024/02/25 06:48:44;;;;;;;;;;;18.00;42.60;;;;;;1545166;75;667;-76
2024/02/25 06:50:46;;;;;;;;;;;17.90;42.70;;;;;;1555997;74;1919;-75
2024/02/25 06:52:48;;;;;;;;;;;17.90;42.60;;;;;;1568883;74;526;-75
2024/02/25 06:54:52;;;;;;;;;;;18.00;42.60;;;;;;1577519;74;576;-74
2024/02/25 06:56:53;;;;;;;;;;;18.00;42.60;;;;;;1564197;74;1612;-76
2024/02/25 06:58:55;;;;;;;;;;;17.90;42.70;;;;;;1572107;74;665;-75
2024/02/25 07:00:57;;;;;;;;;;;17.90;42.70;;;;;;1564134;75;1127;-78
2024/02/25 07:02:59;;;;;;;;;;;17.90;42.60;;;;;;1569398;74;681;-78
2024/02/25 07:05:01;;;;;;;;;;;17.90;42.60;;;;;;1569021;74;678;-73
2024/02/25 07:07:03;;;;;;;;;;;18.00;42.60;;;;;;1561879;74;721;-75
2024/02/25 07:09:05;;;;;;;;;;;17.90;42.60;;;;;;1558519;74;683;-78
2024/02/25 07:11:15;;;;;;;;;;;17.90;42.60;;;;;;1576803;74;1934;-75
2024/02/25 07:13:17;;;;;;;;;;;17.90;42.70;;;;;;1565421;74;925;-80
2024/02/25 07:15:19;;;;;;;;;;;17.90;42.60;;;;;;1555470;74;677;-75
2024/02/25 07:17:21;;;;;;;;;;;17.90;42.70;;;;;;1566346;74;513;-76
2024/02/25 07:19:23;;;;;;;;;;;17.90;42.70;;;;;;1561343;74;1131;-76
2024/02/25 07:21:26;;;;;;;;;;;17.90;42.60;;;;;;1573471;74;723;-77
2024/02/25 07:23:28;;;;;;;;;;;17.90;42.60;;;;;;1555191;74;692;-75
2024/02/25 07:25:30;;;;;;;;;;;17.90;42.60;;;;;;1567827;74;664;-75
2024/02/25 07:27:32;;;;;;;;;;;17.90;42.70;;;;;;1566525;74;597;-74
2024/02/25 07:29:33;;;;;;;;;;;17.90;42.70;;;;;;1580043;74;1136;-77
2024/02/25 07:31:35;;;;;;;;;;;17.90;42.70;;;;;;1562909;74;1949;-75
2024/02/25 07:33:37;;;;;;;;;;;17.90;42.70;;;;;;1567151;74;795;-74
2024/02/25 07:35:39;;;;;;;;;;;17.90;42.60;;;;;;1556292;74;731;-73
2024/02/25 07:37:41;;;;;;;;;;;17.90;42.70;;;;;;1565150;74;604;-75
2024/02/25 07:39:43;;;;;;;;;;;17.90;42.60;;;;;;1564277;74;1156;-77
2024/02/25 07:41:47;;;;;;;;;;;17.90;42.70;;;;;;1563042;75;735;-76
2024/02/25 07:43:48;;;;;;;;;;;17.90;42.70;;;;;;1578431;74;1309;-76
2024/02/25 07:45:50;;;;;;;;;;;17.90;42.70;;;;;;1563844;74;645;-77
2024/02/25 07:47:52;;;;;;;;;;;17.90;42.60;;;;;;1568800;74;691;-74
2024/02/25 07:49:54;;;;;;;;;;;17.90;42.60;;;;;;1567476;74;1101;-72
2024/02/25 07:51:56;;;;;;;;;;;17.90;42.70;;;;;;1560001;74;1937;-76
2024/02/25 07:53:58;;;;;;;;;;;17.90;42.60;;;;;;1561667;75;723;-75
2024/02/25 07:56:00;;;;;;;;;;;17.90;42.70;;;;;;1549918;75;664;-74
2024/02/25 07:58:04;;;;;;;;;;;17.90;42.60;;;;;;1562559;74;747;-78
2024/02/25 08:00:06;;;;;;;;;;;17.90;42.60;;;;;;1560228;75;1166;-75
2024/02/25 08:02:08;;;;;;;;;;;17.90;42.70;;;;;;1570517;75;625;-75
2024/02/25 08:04:10;;;;;;;;;;;17.90;42.70;;;;;;1564433;75;594;-72
2024/02/25 08:06:12;;;;;;;;;;;17.90;42.70;;;;;;1558466;75;1284;-74
2024/02/25 08:08:14;;;;;;;;;;;17.90;42.70;;;;;;1562233;75;687;-73
2024/02/25 08:10:16;;;;;;;;;;;17.90;42.60;;;;;;1561904;75;1945;-73
2024/02/25 08:12:17;;;;;;;;;;;17.90;42.70;;;;;;1572735;74;665;-73
2024/02/25 08:14:20;;;;;;;;;;;17.90;42.60;;;;;;1572069;75;814;-73
2024/02/25 08:16:24;;;;;;;;;;;17.90;42.60;;;;;;1557133;75;645;-72
2024/02/25 08:18:26;;;;;;;;;;;17.90;42.70;;;;;;1557891;75;713;-73
2024/02/25 08:20:27;;;;;;;;;;;17.90;42.60;;;;;;1567954;75;1193;-73
2024/02/25 08:22:29;;;;;;;;;;;17.90;42.70;;;;;;1554842;75;635;-76
2024/02/25 08:24:31;;;;;;;;;;;17.90;42.70;;;;;;1567962;75;657;-74
2024/02/25 08:26:34;;;;;;;;;;;17.90;42.70;;;;;;1565044;75;644;-74
2024/02/25 08:28:39;;;;;;;;;;;17.90;42.70;;;;;;1571199;75;681;-75
2024/02/25 08:30:41;;;;;;;;;;;18.00;42.60;;;;;;1561421;75;1932;-75
2024/02/25 08:32:43;;;;;;;;;;;17.90;42.60;;;;;;1558488;75;743;-76
2024/02/25 08:34:44;;;;;;;;;;;17.90;42.70;;;;;;1564848;75;689;-77
2024/02/25 08:36:46;;;;;;;;;;;17.90;42.70;;;;;;1568659;75;675;-76
2024/02/25 08:38:48;;;;;;;;;;;18.00;42.70;;;;;;1562640;75;733;-77
2024/02/25 08:40:50;;;;;;;;;;;17.90;42.70;;;;;;1557250;75;1175;-75
2024/02/25 08:42:52;;;;;;;;;;;18.00;42.70;;;;;;1560076;75;564;-74
2024/02/25 08:44:54;;;;;;;;;;;17.90;42.70;;;;;;1561092;74;685;-78
2024/02/25 08:46:56;;;;;;;;;;;17.90;42.70;;;;;;1559106;75;673;-75
2024/02/25 08:48:58;;;;;;;;;;;18.00;42.70;;;;;;1562325;75;657;-75
2024/02/25 08:51:00;;;;;;;;;;;17.90;42.70;;;;;;1571361;75;1950;-77
2024/02/25 08:53:02;;;;;;;;;;;17.90;42.70;;;;;;1565675;75;958;-75
2024/02/25 08:55:04;;;;;;;;;;;18.00;42.60;;;;;;1572374;75;644;-77
2024/02/25 08:57:06;;;;;;;;;;;17.90;42.70;;;;;;1562027;75;737;-76
2024/02/25 08:59:08;;;;;;;;;;;17.90;42.70;;;;;;1566206;75;773;-76
2024/02/25 09:01:10;;;;;;;;;;;17.90;42.70;;;;;;1566646;75;1141;-75
2024/02/25 09:03:12;;;;;;;;;;;17.90;42.70;;;;;;1568275;75;1586;-71
2024/02/25 09:05:14;;;;;;;;;;;17.90;42.80;;;;;;1559854;75;655;-73
2024/02/25 09:07:17;;;;;;;;;;;17.90;42.70;;;;;;1557560;75;636;-75
2024/02/25 09:09:19;;;;;;;;;;;17.90;42.70;;;;;;1509841;78;1191;-74
2024/02/25 09:11:20;;;;;;;;;;;17.90;42.70;;;;;;1505468;78;1915;-76
2024/02/25 09:13:22;;;;;;;;;;;18.00;42.70;;;;;;1513285;77;693;-75
2024/02/25 09:15:26;;;;;;;;;;;17.90;42.70;;;;;;1510536;77;701;-78
2024/02/25 09:17:28;;;;;;;;;;;18.00;42.80;;;;;;1507014;78;706;-74
2024/02/25 09:19:29;;;;;;;;;;;17.90;42.70;;;;;;1499628;77;1139;-73
2024/02/25 09:21:31;;;;;;;;;;;17.90;42.80;;;;;;1518996;77;615;-76
2024/02/25 09:23:33;;;;;;;;;;;17.90;42.70;;;;;;1519022;77;670;-74
2024/02/25 09:25:36;;;;;;;;;;;18.00;42.70;;;;;;1503968;76;658;-74
2024/02/25 09:27:39;;;;;;;;;;;17.90;42.70;;;;;;1512308;77;647;-74
2024/02/25 09:29:41;;;;;;;;;;;18.00;42.70;;;;;;1546619;76;1460;-74
2024/02/25 09:31:43;;;;;;;;;;;18.00;42.70;;;;;;1536666;76;1917;-77
2024/02/25 09:33:54;;;;;;;;;;;17.90;42.70;;;;;;1522565;76;665;-75
2024/02/25 09:35:55;;;;;;;;;;;17.90;42.70;;;;;;1524866;76;1009;-74
2024/02/25 09:37:56;;;;;;;;;;;17.90;42.70;;;;;;1527091;76;858;-74
2024/02/25 09:39:59;;;;;;;;;;;17.90;42.70;;;;;;1526886;76;1175;-74
2024/02/25 09:42:01;;;;;;;;;;;18.00;42.70;;;;;;1496780;78;697;-76
2024/02/25 09:44:02;;;;;;;;;;;18.00;42.70;;;;;;1488758;78;1189;-75
2024/02/25 09:46:04;;;;;;;;;;;18.00;42.70;;;;;;1519194;77;746;-75
2024/02/25 09:48:06;;;;;;;;;;;17.90;42.70;;;;;;1536090;76;808;-75
2024/02/25 09:50:08;;;;;;;;;;;17.90;42.70;;;;;;1510674;77;1149;-75
2024/02/25 09:52:10;;;;;;;;;;;18.00;42.70;;;;;;1523791;76;1930;-75
2024/02/25 09:54:12;;;;;;;;;;;17.90;42.70;;;;;;1522719;76;777;-80
2024/02/25 09:56:14;;;;;;;;;;;18.00;42.70;;;;;;1519930;76;676;-74
2024/02/25 09:58:16;;;;;;;;;;;17.90;42.70;;;;;;1503059;78;1325;-75
2024/02/25 10:00:19;;;;;;;;;;;17.90;42.70;;;;;;1483349;77;1209;-73
2024/02/25 10:02:21;;;;;;;;;;;18.00;42.70;;;;;;1556356;74;719;-75
2024/02/25 10:04:25;;;;;;;;;;;17.90;42.70;;;;;;1556329;74;663;-74
2024/02/25 10:06:27;;;;;;;;;;;18.00;42.70;;;;;;1559120;74;786;-76
2024/02/25 10:08:29;;;;;;;;;;;17.90;42.70;;;;;;1559504;74;606;-73
2024/02/25 10:10:35;;;;;;;;;;;17.90;42.70;;;;;;1561465;74;1156;-76
2024/02/25 10:12:39;;;;;;;;;;;18.00;42.70;;;;;;1544923;74;1946;-76
2024/02/25 10:14:42;;;;;;;;;;;18.00;42.70;;;;;;1549195;74;808;-74
2024/02/25 10:16:43;;;;;;;;;;;17.90;42.70;;;;;;1549898;74;668;-74
2024/02/25 10:18:46;;;;;;;;;;;18.00;42.70;;;;;;1566334;74;743;-77
2024/02/25 10:20:47;;;;;;;;;;;17.90;42.70;;;;;;1566705;74;1096;-74
2024/02/25 10:22:51;;;;;;;;;;;17.90;42.70;;;;;;1557415;74;719;-78
2024/02/25 10:24:53;;;;;;;;;;;18.00;42.70;;;;;;1551777;74;1129;-75
2024/02/25 10:26:57;;;;;;;;;;;17.90;42.70;;;;;;1557292;74;681;-75
2024/02/25 10:29:02;;;;;;;;;;;18.00;42.70;;;;;;1552964;74;1275;-75
2024/02/25 10:31:04;;;;;;;;;;;18.00;42.70;;;;;;1554529;74;2111;-74
2024/02/25 10:33:15;;;;;;;;;;;18.00;42.70;;;;;;1549531;74;620;-75
2024/02/25 10:35:17;;;;;;;;;;;18.00;42.70;;;;;;1559529;74;702;-75
2024/02/25 10:37:22;;;;;;;;;;;18.00;42.70;;;;;;1569035;74;696;-75
2024/02/25 10:39:24;;;;;;;;;;;18.00;42.60;;;;;;1566002;76;1151;-76
2024/02/25 10:41:27;;;;;;;;;;;17.90;42.70;;;;;;1569380;74;565;-74
2024/02/25 10:43:29;;;;;;;;;;;18.00;42.70;;;;;;1556840;74;731;-77
2024/02/25 10:45:31;;;;;;;;;;;18.00;42.70;;;;;;1565423;74;742;-73
2024/02/25 10:47:35;;;;;;;;;;;17.90;42.70;;;;;;1554175;74;792;-74
2024/02/25 10:49:36;;;;;;;;;;;18.00;42.60;;;;;;1567368;74;1621;-72
2024/02/25 10:51:39;;;;;;;;;;;17.90;42.60;;;;;;1557877;74;1927;-72
2024/02/25 10:53:41;;;;;;;;;;;18.00;42.70;;;;;;1574991;74;1094;-79
2024/02/25 10:55:43;;;;;;;;;;;18.00;42.60;;;;;;1587581;74;1543;-74
2024/02/25 10:57:45;;;;;;;;;;;18.00;42.70;;;;;;1582107;74;759;-72
2024/02/25 10:59:47;;;;;;;;;;;18.00;42.70;;;;;;1590252;74;1157;-74
2024/02/25 11:01:50;;;;;;;;;;;17.90;42.70;;;;;;1595288;74;702;-78
2024/02/25 11:03:52;;;;;;;;;;;17.90;42.60;;;;;;1591409;74;763;-75
2024/02/25 11:05:55;;;;;;;;;;;18.00;42.70;;;;;;1590519;74;715;-76
2024/02/25 11:08:00;;;;;;;;;;;18.00;42.70;;;;;;1586046;74;664;-78
2024/02/25 11:10:02;;;;;;;;;;;18.00;42.70;;;;;;1587095;74;1129;-78
2024/02/25 11:12:15;;;;;;;;;;;17.90;42.70;;;;;;1590581;74;1937;-74
2024/02/25 11:14:17;;;;;;;;;;;18.00;42.60;;;;;;1551201;74;987;-74
2024/02/25 11:16:18;;;;;;;;;;;18.00;42.70;;;;;;1587596;74;752;-75
2024/02/25 11:18:22;;;;;;;;;;;18.20;42.80;;;;;;1591756;74;779;-75
2024/02/25 11:20:27;;;;;;;;;;;18.00;42.70;;;;;;1590974;74;1116;-77
2024/02/25 11:22:49;;;;;;;;;;;18.00;42.70;;;;;;1585366;74;1700;-75
2024/02/25 11:24:51;;;;;;;;;;;17.90;42.60;;;;;;1574206;74;663;-75
2024/02/25 11:26:56;;;;;;;;;;;18.00;42.60;;;;;;1590542;74;684;-75
2024/02/25 11:29:18;;;;;;;;;;;18.00;42.70;;;;;;1588581;74;672;-76
2024/02/25 11:31:19;;;;;;;;;;;18.00;42.70;;;;;;1575688;74;1499;-76
2024/02/25 11:33:25;;;;;;;;;;;18.00;42.60;;;;;;1580714;74;1947;-75
2024/02/25 11:35:27;;;;;;;;;;;18.00;42.60;;;;;;1582416;74;673;-75
2024/02/25 11:37:29;;;;;;;;;;;18.00;42.60;;;;;;1587498;74;765;-75
2024/02/25 11:39:31;;;;;;;;;;;18.00;42.70;;;;;;1586854;74;1159;-76
2024/02/25 11:41:34;;;;;;;;;;;18.00;42.70;;;;;;1578437;74;807;-75
2024/02/25 11:43:36;;;;;;;;;;;18.00;42.60;;;;;;1593627;74;668;-73
2024/02/25 11:45:38;;;;;;;;;;;18.00;42.70;;;;;;1594928;74;542;-73
2024/02/25 11:47:40;;;;;;;;;;;17.90;42.60;;;;;;1584711;74;718;-75
2024/02/25 11:49:42;;;;;;;;;;;18.00;42.60;;;;;;1583952;74;1193;-78
2024/02/25 11:51:44;;;;;;;;;;;18.00;42.70;;;;;;1576539;74;1930;-78
2024/02/25 11:53:51;;;;;;;;;;;17.90;42.70;;;;;;1583085;74;1104;-72
2024/02/25 11:55:53;;;;;;;;;;;18.00;42.60;;;;;;1575557;74;725;-74
2024/02/25 11:57:55;;;;;;;;;;;18.00;42.60;;;;;;1575314;74;733;-75
2024/02/25 11:59:57;;;;;;;;;;;18.00;42.60;;;;;;1568144;74;1211;-74
2024/02/25 12:01:59;;;;;;;;;;;18.00;42.70;;;;;;1573332;74;583;-77
2024/02/25 12:04:00;;;;;;;;;;;18.00;42.60;;;;;;1568349;74;707;-77
2024/02/25 12:06:03;;;;;;;;;;;18.00;42.60;;;;;;1578436;74;755;-77
2024/02/25 12:08:05;;;;;;;;;;;17.90;42.60;;;;;;1577767;74;725;-77
2024/02/25 12:10:07;;;;;;;;;;;18.00;42.60;;;;;;1589866;74;1108;-77